sensor_id;sensor_type;location;lat;lon;timestamp;temperature;humidity
53053;DHT22;38934;52.690;6.184;2024-03-23T03:28:37;5.30;99.90
53053;DHT22;38934;52.690;6.184;2024-03-23T03:31:03;5.10;99.90
53053;DHT22;38934;52.690;6.184;2024-03-23T03:33:29;5.00;99.90
53053;DHT22;38934;52.690;6.184;2024-03-23T03:35:55;4.90;99.90
53053;DHT22;38934;52.690;6.184;2024-03-23T03:38:21;4.90;99.90
53053;DHT22;38934;52.690;6.184;2024-03-23T03:40:47;4.90;99.90
53053;DHT22;38934;52.690;6.184;2024-03-23T03:43:12;4.90;99.90
53053;DHT22;38934;52.690;6.184;2024-03-23T03:45:38;4.80;99.90
53053;DHT22;38934;52.690;6.184;2024-03-23T03:48:04;4.80;99.90
53053;DHT22;38934;52.690;6.184;2024-03-23T03:50:33;4.70;99.90
53053;DHT22;38934;52.690;6.184;2024-03-23T03:52:58;4.60;99.90
53053;DHT22;38934;52.690;6.184;2024-03-23T03:55:24;4.70;99.90
53053;DHT22;38934;52.690;6.184;2024-03-23T03:57:49;4.60;99.90
53053;DHT22;38934;52.690;6.184;2024-03-23T04:00:15;4.60;99.90
53053;DHT22;38934;52.690;6.184;2024-03-23T04:02:41;4.60;99.90
53053;DHT22;38934;52.690;6.184;2024-03-23T04:05:07;4.60;99.90
53053;DHT22;38934;52.690;6.184;2024-03-23T04:07:33;4.60;99.90
53053;DHT22;38934;52.690;6.184;2024-03-23T04:09:59;4.60;99.90
53053;DHT22;38934;52.690;6.184;2024-03-23T04:12:25;4.50;99.90
53053;DHT22;38934;52.690;6.184;2024-03-23T04:14:51;4.40;99.90
53053;DHT22;38934;52.690;6.184;2024-03-23T04:17:16;4.40;99.90
53053;DHT22;38934;52.690;6.184;2024-03-23T04:19:43;4.40;99.90
53053;DHT22;38934;52.690;6.184;2024-03-23T04:22:09;4.40;99.90
53053;DHT22;38934;52.690;6.184;2024-03-23T04:24:35;4.30;99.90
53053;DHT22;38934;52.690;6.184;2024-03-23T04:27:00;4.20;99.90
53053;DHT22;38934;52.690;6.184;2024-03-23T04:29:26;4.20;99.90
53053;DHT22;38934;52.690;6.184;2024-03-23T04:31:52;4.20;99.90
53053;DHT22;38934;52.690;6.184;2024-03-23T04:34:18;4.20;99.90
53053;DHT22;38934;52.690;6.184;2024-03-23T04:36:44;4.20;99.90
53053;DHT22;38934;52.690;6.184;2024-03-23T04:39:09;4.20;99.90
53053;DHT22;38934;52.690;6.184;2024-03-23T04:41:35;4.20;99.90
53053;DHT22;38934;52.690;6.184;2024-03-23T04:44:01;4.20;99.90
53053;DHT22;38934;52.690;6.184;2024-03-23T04:46:27;4.20;99.90
53053;DHT22;38934;52.690;6.184;2024-03-23T04:48:52;4.20;99.90
53053;DHT22;38934;52.690;6.184;2024-03-23T04:51:24;4.20;99.90
53053;DHT22;38934;52.690;6.184;2024-03-23T04:53:50;4.10;99.90
53053;DHT22;38934;52.690;6.184;2024-03-23T04:56:16;4.10;99.90
53053;DHT22;38934;52.690;6.184;2024-03-23T04:58:42;4.10;99.90
53053;DHT22;38934;52.690;6.184;2024-03-23T05:01:08;4.10;99.90
53053;DHT22;38934;52.690;6.184;2024-03-23T05:03:34;4.10;99.90
53053;DHT22;38934;52.690;6.184;2024-03-23T05:05:59;4.00;99.90
53053;DHT22;38934;52.690;6.184;2024-03-23T05:08:25;4.00;99.90
53053;DHT22;38934;52.690;6.184;2024-03-23T05:10:51;4.00;99.90
53053;DHT22;38934;52.690;6.184;2024-03-23T05:13:16;3.90;99.90
53053;DHT22;38934;52.690;6.184;2024-03-23T05:15:42;3.90;99.90
53053;DHT22;38934;52.690;6.184;2024-03-23T05:18:08;3.90;99.90
53053;DHT22;38934;52.690;6.184;2024-03-23T05:20:34;3.10;99.90
53053;DHT22;38934;52.690;6.184;2024-03-23T05:22:59;3.90;99.90
53053;DHT22;38934;52.690;6.184;2024-03-23T05:25:25;3.80;99.90
53053;DHT22;38934;52.690;6.184;2024-03-23T05:27:51;3.80;99.90
53053;DHT22;38934;52.690;6.184;2024-03-23T05:30:16;3.80;99.90
53053;DHT22;38934;52.690;6.184;2024-03-23T05:32:42;3.90;99.90
53053;DHT22;38934;52.690;6.184;2024-03-23T05:35:09;3.90;99.90
53053;DHT22;38934;52.690;6.184;2024-03-23T05:37:34;3.90;99.90
53053;DHT22;38934;52.690;6.184;2024-03-23T05:40:00;3.90;99.90
53053;DHT22;38934;52.690;6.184;2024-03-23T05:42:26;3.90;99.90
53053;DHT22;38934;52.690;6.184;2024-03-23T05:44:52;4.00;99.90
53053;DHT22;38934;52.690;6.184;2024-03-23T05:47:18;4.10;99.90
53053;DHT22;38934;52.690;6.184;2024-03-23T05:49:43;4.20;99.90
53053;DHT22;38934;52.690;6.184;2024-03-23T05:52:11;4.30;99.90
53053;DHT22;38934;52.690;6.184;2024-03-23T05:54:37;4.40;99.90
53053;DHT22;38934;52.690;6.184;2024-03-23T05:57:03;4.50;99.90
53053;DHT22;38934;52.690;6.184;2024-03-23T05:59:29;4.60;99.90
53053;DHT22;38934;52.690;6.184;2024-03-23T06:01:55;4.70;99.90
53053;DHT22;38934;52.690;6.184;2024-03-23T06:04:20;4.70;99.90
53053;DHT22;38934;52.690;6.184;2024-03-23T06:06:47;4.70;99.90
53053;DHT22;38934;52.690;6.184;2024-03-23T06:09:12;4.70;99.90
53053;DHT22;38934;52.690;6.184;2024-03-23T06:11:38;4.70;99.90
53053;DHT22;38934;52.690;6.184;2024-03-23T06:14:03;4.70;99.90
53053;DHT22;38934;52.690;6.184;2024-03-23T06:16:29;4.60;99.90
53053;DHT22;38934;52.690;6.184;2024-03-23T06:18:56;5.60;99.90
53053;DHT22;38934;52.690;6.184;2024-03-23T06:21:21;4.50;99.90
53053;DHT22;38934;52.690;6.184;2024-03-23T06:23:52;5.50;99.90
53053;DHT22;38934;52.690;6.184;2024-03-23T06:26:21;4.50;99.90
53053;DHT22;38934;52.690;6.184;2024-03-23T06:28:47;4.80;99.90
53053;DHT22;38934;52.690;6.184;2024-03-23T06:31:13;5.00;99.90
53053;DHT22;38934;52.690;6.184;2024-03-23T06:33:39;4.40;99.90
53053;DHT22;38934;52.690;6.184;2024-03-23T06:36:07;5.80;99.90
53053;DHT22;38934;52.690;6.184;2024-03-23T06:38:34;5.50;99.90
53053;DHT22;38934;52.690;6.184;2024-03-23T06:41:02;4.70;99.90
53053;DHT22;38934;52.690;6.184;2024-03-23T06:43:28;4.60;99.90
53053;DHT22;38934;52.690;6.184;2024-03-23T06:45:54;4.60;99.90
53053;DHT22;38934;52.690;6.184;2024-03-23T06:48:20;5.00;99.90
53053;DHT22;38934;52.690;6.184;2024-03-23T06:50:56;5.50;99.90
53053;DHT22;38934;52.690;6.184;2024-03-23T06:53:22;5.50;99.90
53053;DHT22;38934;52.690;6.184;2024-03-23T06:55:53;4.90;99.90
53053;DHT22;38934;52.690;6.184;2024-03-23T07:01:25;4.50;99.90
53053;DHT22;38934;52.690;6.184;2024-03-23T07:03:55;5.70;99.90
53053;DHT22;38934;52.690;6.184;2024-03-23T07:06:21;5.50;99.90
53053;DHT22;38934;52.690;6.184;2024-03-23T07:08:47;6.00;99.90
53053;DHT22;38934;52.690;6.184;2024-03-23T07:11:18;6.00;99.90
53053;DHT22;38934;52.690;6.184;2024-03-23T07:13:43;6.10;99.90
53053;DHT22;38934;52.690;6.184;2024-03-23T07:16:09;6.00;99.90
53053;DHT22;38934;52.690;6.184;2024-03-23T07:18:34;6.80;99.90
53053;DHT22;38934;52.690;6.184;2024-03-23T07:21:00;5.80;99.90
53053;DHT22;38934;52.690;6.184;2024-03-23T07:23:25;6.80;99.90
53053;DHT22;38934;52.690;6.184;2024-03-23T07:26:02;5.70;99.90
53053;DHT22;38934;52.690;6.184;2024-03-23T07:28:28;5.70;99.90
53053;DHT22;38934;52.690;6.184;2024-03-23T07:31:11;5.60;99.90
53053;DHT22;38934;52.690;6.184;2024-03-23T07:33:41;5.60;99.90
53053;DHT22;38934;52.690;6.184;2024-03-23T07:36:07;5.60;99.90
53053;DHT22;38934;52.690;6.184;2024-03-23T07:38:32;6.00;99.90
53053;DHT22;38934;52.690;6.184;2024-03-23T07:41:18;5.60;99.90
53053;DHT22;38934;52.690;6.184;2024-03-23T07:43:45;5.70;99.90
53053;DHT22;38934;52.690;6.184;2024-03-23T07:46:11;5.90;99.90
53053;DHT22;38934;52.690;6.184;2024-03-23T07:48:38;6.80;99.90
53053;DHT22;38934;52.690;6.184;2024-03-23T07:51:14;6.20;99.90
53053;DHT22;38934;52.690;6.184;2024-03-23T07:53:42;6.20;99.90
53053;DHT22;38934;52.690;6.184;2024-03-23T07:56:09;6.20;99.90
53053;DHT22;38934;52.690;6.184;2024-03-23T07:58:38;6.20;99.90
53053;DHT22;38934;52.690;6.184;2024-03-23T08:01:05;7.20;99.90
53053;DHT22;38934;52.690;6.184;2024-03-23T08:03:33;6.40;99.90
53053;DHT22;38934;52.690;6.184;2024-03-23T08:06:07;6.40;99.90
53053;DHT22;38934;52.690;6.184;2024-03-23T08:08:34;6.40;99.90
53053;DHT22;38934;52.690;6.184;2024-03-23T08:10:59;7.30;99.90
53053;DHT22;38934;52.690;6.184;2024-03-23T08:13:25;6.30;99.90
53053;DHT22;38934;52.690;6.184;2024-03-23T08:15:51;6.40;99.90
53053;DHT22;38934;52.690;6.184;2024-03-23T08:18:17;6.50;99.90
53053;DHT22;38934;52.690;6.184;2024-03-23T08:20:42;6.60;99.90
53053;DHT22;38934;52.690;6.184;2024-03-23T08:23:08;6.60;99.90
53053;DHT22;38934;52.690;6.184;2024-03-23T08:25:34;6.60;99.90
53053;DHT22;38934;52.690;6.184;2024-03-23T08:28:00;6.50;99.90
53053;DHT22;38934;52.690;6.184;2024-03-23T08:30:26;6.50;99.90
53053;DHT22;38934;52.690;6.184;2024-03-23T08:32:52;6.50;99.90
53053;DHT22;38934;52.690;6.184;2024-03-23T08:35:17;6.40;99.90
53053;DHT22;38934;52.690;6.184;2024-03-23T08:37:43;6.30;99.90
53053;DHT22;38934;52.690;6.184;2024-03-23T08:40:09;6.30;99.90
53053;DHT22;38934;52.690;6.184;2024-03-23T08:42:35;6.20;99.90
53053;DHT22;38934;52.690;6.184;2024-03-23T08:45:01;6.30;99.90
53053;DHT22;38934;52.690;6.184;2024-03-23T08:47:26;6.30;99.90
53053;DHT22;38934;52.690;6.184;2024-03-23T08:49:52;6.20;99.90
53053;DHT22;38934;52.690;6.184;2024-03-23T08:52:18;6.20;99.90
53053;DHT22;38934;52.690;6.184;2024-03-23T08:54:43;6.10;99.90
53053;DHT22;38934;52.690;6.184;2024-03-23T08:57:09;6.10;99.90
53053;DHT22;38934;52.690;6.184;2024-03-23T08:59:35;6.20;99.90
53053;DHT22;38934;52.690;6.184;2024-03-23T09:02:01;6.10;99.90
53053;DHT22;38934;52.690;6.184;2024-03-23T09:06:52;6.20;99.90
53053;DHT22;38934;52.690;6.184;2024-03-23T09:09:18;6.30;99.90
53053;DHT22;38934;52.690;6.184;2024-03-23T09:11:45;6.40;99.90
53053;DHT22;38934;52.690;6.184;2024-03-23T09:14:11;6.50;99.90
53053;DHT22;38934;52.690;6.184;2024-03-23T09:16:36;6.60;99.90
53053;DHT22;38934;52.690;6.184;2024-03-23T09:19:02;6.70;99.90
53053;DHT22;38934;52.690;6.184;2024-03-23T09:21:28;6.90;99.90
53053;DHT22;38934;52.690;6.184;2024-03-23T09:23:54;7.00;99.90
53053;DHT22;38934;52.690;6.184;2024-03-23T09:26:20;7.20;99.90
53053;DHT22;38934;52.690;6.184;2024-03-23T09:28:48;7.20;99.90
53053;DHT22;38934;52.690;6.184;2024-03-23T09:31:14;7.20;99.90
53053;DHT22;38934;52.690;6.184;2024-03-23T09:33:41;7.40;99.90
53053;DHT22;38934;52.690;6.184;2024-03-23T09:36:07;7.90;99.90
53053;DHT22;38934;52.690;6.184;2024-03-23T09:38:33;7.30;99.90
53053;DHT22;38934;52.690;6.184;2024-03-23T09:40:59;7.30;99.90
53053;DHT22;38934;52.690;6.184;2024-03-23T09:43:26;7.50;99.90
53053;DHT22;38934;52.690;6.184;2024-03-23T09:45:52;7.70;99.90
53053;DHT22;38934;52.690;6.184;2024-03-23T09:48:18;8.20;99.90
53053;DHT22;38934;52.690;6.184;2024-03-23T09:50:44;7.90;99.90
53053;DHT22;38934;52.690;6.184;2024-03-23T09:53:12;7.90;99.90
53053;DHT22;38934;52.690;6.184;2024-03-23T09:55:42;7.80;99.90
53053;DHT22;38934;52.690;6.184;2024-03-23T09:58:08;7.60;99.90
53053;DHT22;38934;52.690;6.184;2024-03-23T10:00:37;7.60;99.90
53053;DHT22;38934;52.690;6.184;2024-03-23T10:03:04;7.60;99.90
53053;DHT22;38934;52.690;6.184;2024-03-23T10:05:32;7.60;99.90
53053;DHT22;38934;52.690;6.184;2024-03-23T10:08:00;7.50;99.90
53053;DHT22;38934;52.690;6.184;2024-03-23T10:10:26;7.60;99.90
53053;DHT22;38934;52.690;6.184;2024-03-23T10:12:52;7.50;99.90
53053;DHT22;38934;52.690;6.184;2024-03-23T10:15:24;7.60;99.90
53053;DHT22;38934;52.690;6.184;2024-03-23T10:17:50;8.00;99.90
53053;DHT22;38934;52.690;6.184;2024-03-23T10:20:21;7.50;99.90
53053;DHT22;38934;52.690;6.184;2024-03-23T10:22:50;7.60;99.90
53053;DHT22;38934;52.690;6.184;2024-03-23T10:25:22;7.70;99.90
53053;DHT22;38934;52.690;6.184;2024-03-23T10:27:59;7.80;99.90
53053;DHT22;38934;52.690;6.184;2024-03-23T10:30:26;8.00;99.90
53053;DHT22;38934;52.690;6.184;2024-03-23T10:33:09;8.10;99.90
53053;DHT22;38934;52.690;6.184;2024-03-23T10:35:39;8.40;99.90
53053;DHT22;38934;52.690;6.184;2024-03-23T10:38:06;8.60;99.90
53053;DHT22;38934;52.690;6.184;2024-03-23T10:40:35;8.80;99.90
53053;DHT22;38934;52.690;6.184;2024-03-23T10:43:03;9.00;99.90
53053;DHT22;38934;52.690;6.184;2024-03-23T10:45:29;9.00;99.90
53053;DHT22;38934;52.690;6.184;2024-03-23T10:47:55;9.10;99.90
53053;DHT22;38934;52.690;6.184;2024-03-23T10:50:21;9.10;99.90
53053;DHT22;38934;52.690;6.184;2024-03-23T10:52:48;9.20;99.90
53053;DHT22;38934;52.690;6.184;2024-03-23T10:55:17;9.30;99.90
53053;DHT22;38934;52.690;6.184;2024-03-23T10:57:54;9.40;99.90
53053;DHT22;38934;52.690;6.184;2024-03-23T11:00:21;9.50;99.90
53053;DHT22;38934;52.690;6.184;2024-03-23T11:02:48;9.60;99.90
53053;DHT22;38934;52.690;6.184;2024-03-23T11:07:52;9.50;99.90
53053;DHT22;38934;52.690;6.184;2024-03-23T11:10:31;9.40;99.90
53053;DHT22;38934;52.690;6.184;2024-03-23T11:13:21;9.20;99.90
53053;DHT22;38934;52.690;6.184;2024-03-23T11:15:44;9.30;99.90
53053;DHT22;38934;52.690;6.184;2024-03-23T11:18:09;9.10;99.90
53053;DHT22;38934;52.690;6.184;2024-03-23T11:20:36;9.20;99.90
53053;DHT22;38934;52.690;6.184;2024-03-23T11:23:02;9.50;99.90
53053;DHT22;38934;52.690;6.184;2024-03-23T11:25:28;9.70;99.90
53053;DHT22;38934;52.690;6.184;2024-03-23T11:28:09;9.90;99.90
53053;DHT22;38934;52.690;6.184;2024-03-23T11:30:35;9.90;99.90
53053;DHT22;38934;52.690;6.184;2024-03-23T11:33:03;10.00;99.90
53053;DHT22;38934;52.690;6.184;2024-03-23T11:35:34;10.00;99.90
53053;DHT22;38934;52.690;6.184;2024-03-23T11:38:14;9.80;99.90
53053;DHT22;38934;52.690;6.184;2024-03-23T11:40:45;9.40;99.90
53053;DHT22;38934;52.690;6.184;2024-03-23T11:43:14;9.30;99.90
53053;DHT22;38934;52.690;6.184;2024-03-23T11:45:45;9.40;99.90
53053;DHT22;38934;52.690;6.184;2024-03-23T11:50:40;9.30;99.90
53053;DHT22;38934;52.690;6.184;2024-03-23T11:53:16;9.20;99.90
53053;DHT22;38934;52.690;6.184;2024-03-23T11:55:49;9.00;99.90
53053;DHT22;38934;52.690;6.184;2024-03-23T11:58:17;8.70;99.90
53053;DHT22;38934;52.690;6.184;2024-03-23T12:00:49;8.50;99.90
53053;DHT22;38934;52.690;6.184;2024-03-23T12:03:16;8.40;99.90
53053;DHT22;38934;52.690;6.184;2024-03-23T12:05:47;8.20;99.90
53053;DHT22;38934;52.690;6.184;2024-03-23T12:08:33;8.20;99.90
53053;DHT22;38934;52.690;6.184;2024-03-23T12:13:39;8.40;99.90
53053;DHT22;38934;52.690;6.184;2024-03-23T12:16:10;8.60;99.90
53053;DHT22;38934;52.690;6.184;2024-03-23T12:18:41;8.80;99.90
53053;DHT22;38934;52.690;6.184;2024-03-23T12:21:07;9.30;99.90
53053;DHT22;38934;52.690;6.184;2024-03-23T12:23:33;8.70;99.90
53053;DHT22;38934;52.690;6.184;2024-03-23T12:25:59;8.70;99.90
53053;DHT22;38934;52.690;6.184;2024-03-23T12:28:25;8.60;99.90
53053;DHT22;38934;52.690;6.184;2024-03-23T12:30:51;7.80;99.90
53053;DHT22;38934;52.690;6.184;2024-03-23T12:33:20;7.50;99.90
53053;DHT22;38934;52.690;6.184;2024-03-23T12:35:47;7.20;99.90
53053;DHT22;38934;52.690;6.184;2024-03-23T12:38:13;7.10;99.90
53053;DHT22;38934;52.690;6.184;2024-03-23T12:40:38;7.20;99.90
53053;DHT22;38934;52.690;6.184;2024-03-23T12:43:04;7.40;99.90
53053;DHT22;38934;52.690;6.184;2024-03-23T12:45:29;7.60;99.90
53053;DHT22;38934;52.690;6.184;2024-03-23T12:47:55;7.70;99.90
53053;DHT22;38934;52.690;6.184;2024-03-23T12:50:21;8.00;99.90
53053;DHT22;38934;52.690;6.184;2024-03-23T12:52:47;8.30;99.90
53053;DHT22;38934;52.690;6.184;2024-03-23T12:55:13;8.60;99.90
53053;DHT22;38934;52.690;6.184;2024-03-23T12:57:38;9.00;99.90
53053;DHT22;38934;52.690;6.184;2024-03-23T13:00:06;8.90;99.90
53053;DHT22;38934;52.690;6.184;2024-03-23T13:02:34;8.90;99.90
53053;DHT22;38934;52.690;6.184;2024-03-23T13:05:00;8.90;99.90
53053;DHT22;38934;52.690;6.184;2024-03-23T13:07:26;8.80;99.90
53053;DHT22;38934;52.690;6.184;2024-03-23T13:09:52;8.70;99.90
53053;DHT22;38934;52.690;6.184;2024-03-23T13:12:18;8.40;99.90
53053;DHT22;38934;52.690;6.184;2024-03-23T13:14:45;8.20;99.90
53053;DHT22;38934;52.690;6.184;2024-03-23T13:17:11;8.00;99.90
53053;DHT22;38934;52.690;6.184;2024-03-23T13:19:37;8.30;99.90
53053;DHT22;38934;52.690;6.184;2024-03-23T13:22:03;7.80;99.90
53053;DHT22;38934;52.690;6.184;2024-03-23T13:24:29;7.70;99.90
53053;DHT22;38934;52.690;6.184;2024-03-23T13:26:56;7.70;99.90
53053;DHT22;38934;52.690;6.184;2024-03-23T13:29:22;7.80;99.90
53053;DHT22;38934;52.690;6.184;2024-03-23T13:31:50;7.80;99.90
53053;DHT22;38934;52.690;6.184;2024-03-23T13:34:17;7.80;99.90
53053;DHT22;38934;52.690;6.184;2024-03-23T13:36:43;7.80;99.90
53053;DHT22;38934;52.690;6.184;2024-03-23T13:39:10;7.70;99.90
53053;DHT22;38934;52.690;6.184;2024-03-23T13:41:40;7.70;99.90
53053;DHT22;38934;52.690;6.184;2024-03-23T13:44:06;7.70;99.90
53053;DHT22;38934;52.690;6.184;2024-03-23T13:46:33;8.10;99.90
53053;DHT22;38934;52.690;6.184;2024-03-23T13:48:59;7.80;99.90
53053;DHT22;38934;52.690;6.184;2024-03-23T13:51:26;8.00;99.90
53053;DHT22;38934;52.690;6.184;2024-03-23T13:53:55;7.70;99.90
53053;DHT22;38934;52.690;6.184;2024-03-23T13:56:27;7.80;99.90
53053;DHT22;38934;52.690;6.184;2024-03-23T13:58:57;7.80;99.90
53053;DHT22;38934;52.690;6.184;2024-03-23T14:01:23;7.70;99.90
53053;DHT22;38934;52.690;6.184;2024-03-23T14:03:49;7.70;99.90
53053;DHT22;38934;52.690;6.184;2024-03-23T14:06:15;7.60;99.90
53053;DHT22;38934;52.690;6.184;2024-03-23T14:08:41;7.30;99.90
53053;DHT22;38934;52.690;6.184;2024-03-23T14:11:10;7.20;99.90
53053;DHT22;38934;52.690;6.184;2024-03-23T14:13:36;7.20;99.90
53053;DHT22;38934;52.690;6.184;2024-03-23T14:16:02;7.40;99.90
53053;DHT22;38934;52.690;6.184;2024-03-23T14:18:28;7.50;99.90
53053;DHT22;38934;52.690;6.184;2024-03-23T14:20:59;7.60;99.90
53053;DHT22;38934;52.690;6.184;2024-03-23T14:23:30;7.70;99.90
53053;DHT22;38934;52.690;6.184;2024-03-23T14:25:56;7.80;99.90
53053;DHT22;38934;52.690;6.184;2024-03-23T14:28:22;7.80;99.90
53053;DHT22;38934;52.690;6.184;2024-03-23T14:30:54;7.70;99.90
53053;DHT22;38934;52.690;6.184;2024-03-23T14:33:20;7.70;99.90
53053;DHT22;38934;52.690;6.184;2024-03-23T14:35:55;8.10;99.90
53053;DHT22;38934;52.690;6.184;2024-03-23T14:38:22;7.80;99.90
53053;DHT22;38934;52.690;6.184;2024-03-23T14:40:48;7.90;99.90
53053;DHT22;38934;52.690;6.184;2024-03-23T14:43:14;8.20;99.90
53053;DHT22;38934;52.690;6.184;2024-03-23T14:46:06;8.10;99.90
53053;DHT22;38934;52.690;6.184;2024-03-23T14:48:32;8.10;99.90
53053;DHT22;38934;52.690;6.184;2024-03-23T14:50:59;8.20;99.90
53053;DHT22;38934;52.690;6.184;2024-03-23T14:53:26;8.20;99.90
53053;DHT22;38934;52.690;6.184;2024-03-23T14:55:55;8.20;99.90
53053;DHT22;38934;52.690;6.184;2024-03-23T14:58:21;8.50;99.90
53053;DHT22;38934;52.690;6.184;2024-03-23T15:00:48;8.30;99.90
53053;DHT22;38934;52.690;6.184;2024-03-23T15:03:14;8.20;99.90
53053;DHT22;38934;52.690;6.184;2024-03-23T15:05:40;8.60;99.90
53053;DHT22;38934;52.690;6.184;2024-03-23T15:08:06;8.60;99.90
53053;DHT22;38934;52.690;6.184;2024-03-23T15:10:33;8.00;99.90
53053;DHT22;38934;52.690;6.184;2024-03-23T15:12:59;8.20;99.90
53053;DHT22;38934;52.690;6.184;2024-03-23T15:15:24;7.90;99.90
53053;DHT22;38934;52.690;6.184;2024-03-23T15:17:50;8.00;99.90
53053;DHT22;38934;52.690;6.184;2024-03-23T15:20:16;8.70;99.90
53053;DHT22;38934;52.690;6.184;2024-03-23T15:22:42;8.00;99.90
53053;DHT22;38934;52.690;6.184;2024-03-23T15:25:08;7.90;99.90
53053;DHT22;38934;52.690;6.184;2024-03-23T15:27:34;7.90;99.90
53053;DHT22;38934;52.690;6.184;2024-03-23T15:29:59;8.00;99.90
53053;DHT22;38934;52.690;6.184;2024-03-23T15:32:25;7.70;99.90
53053;DHT22;38934;52.690;6.184;2024-03-23T15:34:50;7.70;99.90
53053;DHT22;38934;52.690;6.184;2024-03-23T15:37:17;7.60;99.90
53053;DHT22;38934;52.690;6.184;2024-03-23T15:39:43;7.60;99.90
53053;DHT22;38934;52.690;6.184;2024-03-23T15:42:09;7.60;99.90
53053;DHT22;38934;52.690;6.184;2024-03-23T15:44:35;7.70;99.90
53053;DHT22;38934;52.690;6.184;2024-03-23T15:47:01;7.70;99.90
53053;DHT22;38934;52.690;6.184;2024-03-23T15:49:26;7.70;99.90
53053;DHT22;38934;52.690;6.184;2024-03-23T15:51:52;7.80;99.90
53053;DHT22;38934;52.690;6.184;2024-03-23T15:54:19;7.80;99.90
53053;DHT22;38934;52.690;6.184;2024-03-23T15:56:44;7.70;99.90
53053;DHT22;38934;52.690;6.184;2024-03-23T15:59:10;7.90;99.90
53053;DHT22;38934;52.690;6.184;2024-03-23T16:01:38;7.50;99.90
53053;DHT22;38934;52.690;6.184;2024-03-23T16:04:04;7.40;99.90
53053;DHT22;38934;52.690;6.184;2024-03-23T16:06:30;7.30;99.90
53053;DHT22;38934;52.690;6.184;2024-03-23T16:08:55;7.20;99.90
53053;DHT22;38934;52.690;6.184;2024-03-23T16:11:21;7.10;99.90
53053;DHT22;38934;52.690;6.184;2024-03-23T16:13:47;7.50;99.90
53053;DHT22;38934;52.690;6.184;2024-03-23T16:16:13;6.90;99.90
53053;DHT22;38934;52.690;6.184;2024-03-23T16:18:39;7.00;99.90
53053;DHT22;38934;52.690;6.184;2024-03-23T16:21:06;7.00;99.90
53053;DHT22;38934;52.690;6.184;2024-03-23T16:23:32;7.30;99.90
53053;DHT22;38934;52.690;6.184;2024-03-23T16:25:58;7.30;99.90
53053;DHT22;38934;52.690;6.184;2024-03-23T16:28:36;7.60;99.90
53053;DHT22;38934;52.690;6.184;2024-03-23T16:31:05;7.30;99.90
53053;DHT22;38934;52.690;6.184;2024-03-23T16:33:35;7.30;99.90
53053;DHT22;38934;52.690;6.184;2024-03-23T16:38:30;7.30;99.90
53053;DHT22;38934;52.690;6.184;2024-03-23T16:40:59;7.40;99.90
53053;DHT22;38934;52.690;6.184;2024-03-23T16:43:26;7.20;99.90
53053;DHT22;38934;52.690;6.184;2024-03-23T16:46:02;7.10;99.90
53053;DHT22;38934;52.690;6.184;2024-03-23T16:48:32;7.30;99.90
53053;DHT22;38934;52.690;6.184;2024-03-23T16:50:59;6.90;99.90
53053;DHT22;38934;52.690;6.184;2024-03-23T16:53:25;6.90;99.90
53053;DHT22;38934;52.690;6.184;2024-03-23T16:55:55;6.90;99.90
53053;DHT22;38934;52.690;6.184;2024-03-23T16:58:26;6.80;99.90
53053;DHT22;38934;52.690;6.184;2024-03-23T17:00:52;6.60;99.90
53053;DHT22;38934;52.690;6.184;2024-03-23T17:03:19;6.40;99.90
53053;DHT22;38934;52.690;6.184;2024-03-23T17:05:48;6.10;99.90
53053;DHT22;38934;52.690;6.184;2024-03-23T17:08:15;6.00;99.90
53053;DHT22;38934;52.690;6.184;2024-03-23T17:10:40;5.80;99.90
53053;DHT22;38934;52.690;6.184;2024-03-23T17:13:06;5.80;99.90
53053;DHT22;38934;52.690;6.184;2024-03-23T17:15:45;5.70;99.90
53053;DHT22;38934;52.690;6.184;2024-03-23T17:18:11;5.80;99.90
53053;DHT22;38934;52.690;6.184;2024-03-23T17:20:37;5.90;99.90
53053;DHT22;38934;52.690;6.184;2024-03-23T17:23:03;5.90;99.90
53053;DHT22;38934;52.690;6.184;2024-03-23T17:25:29;5.90;99.90
53053;DHT22;38934;52.690;6.184;2024-03-23T17:27:55;5.90;99.90
53053;DHT22;38934;52.690;6.184;2024-03-23T17:30:20;5.90;99.90
53053;DHT22;38934;52.690;6.184;2024-03-23T17:32:46;5.80;99.90
53053;DHT22;38934;52.690;6.184;2024-03-23T17:35:12;5.80;99.90
53053;DHT22;38934;52.690;6.184;2024-03-23T17:37:39;5.70;99.90
53053;DHT22;38934;52.690;6.184;2024-03-23T17:40:05;5.70;99.90
53053;DHT22;38934;52.690;6.184;2024-03-23T17:42:37;5.60;99.90
53053;DHT22;38934;52.690;6.184;2024-03-23T17:45:03;6.00;99.90
53053;DHT22;38934;52.690;6.184;2024-03-23T17:47:37;5.50;99.90
53053;DHT22;38934;52.690;6.184;2024-03-23T17:50:03;5.50;99.90
53053;DHT22;38934;52.690;6.184;2024-03-23T17:52:30;5.40;99.90
53053;DHT22;38934;52.690;6.184;2024-03-23T17:54:56;5.40;99.90
53053;DHT22;38934;52.690;6.184;2024-03-23T17:57:21;5.40;99.90
53053;DHT22;38934;52.690;6.184;2024-03-23T17:59:47;5.30;99.90
53053;DHT22;38934;52.690;6.184;2024-03-23T18:02:14;5.20;99.90
53053;DHT22;38934;52.690;6.184;2024-03-23T18:04:41;5.30;99.90
53053;DHT22;38934;52.690;6.184;2024-03-23T18:07:07;5.20;99.90
53053;DHT22;38934;52.690;6.184;2024-03-23T18:09:33;5.20;99.90
53053;DHT22;38934;52.690;6.184;2024-03-23T18:11:58;5.20;99.90
53053;DHT22;38934;52.690;6.184;2024-03-23T18:14:24;5.20;99.90
53053;DHT22;38934;52.690;6.184;2024-03-23T18:16:50;5.20;99.90
53053;DHT22;38934;52.690;6.184;2024-03-23T18:19:16;5.60;99.90
53053;DHT22;38934;52.690;6.184;2024-03-23T18:21:42;5.30;99.90
53053;DHT22;38934;52.690;6.184;2024-03-23T18:24:08;5.30;99.90
53053;DHT22;38934;52.690;6.184;2024-03-23T18:26:33;5.30;99.90
53053;DHT22;38934;52.690;6.184;2024-03-23T18:28:59;5.30;99.90
53053;DHT22;38934;52.690;6.184;2024-03-23T18:31:25;5.30;99.90
53053;DHT22;38934;52.690;6.184;2024-03-23T18:33:50;5.50;99.90
53053;DHT22;38934;52.690;6.184;2024-03-23T18:36:16;5.40;99.90
53053;DHT22;38934;52.690;6.184;2024-03-23T18:38:42;5.30;99.90
53053;DHT22;38934;52.690;6.184;2024-03-23T18:41:08;5.30;99.90
53053;DHT22;38934;52.690;6.184;2024-03-23T18:43:33;5.30;99.90
53053;DHT22;38934;52.690;6.184;2024-03-23T18:46:01;5.50;99.90
53053;DHT22;38934;52.690;6.184;2024-03-23T18:48:28;5.30;99.90
53053;DHT22;38934;52.690;6.184;2024-03-23T18:50:54;5.30;99.90
53053;DHT22;38934;52.690;6.184;2024-03-23T18:53:20;5.30;99.90
53053;DHT22;38934;52.690;6.184;2024-03-23T18:55:55;5.20;99.90
53053;DHT22;38934;52.690;6.184;2024-03-23T18:58:20;5.10;99.90
53053;DHT22;38934;52.690;6.184;2024-03-23T19:00:46;5.10;99.90
53053;DHT22;38934;52.690;6.184;2024-03-23T19:03:13;5.10;99.90
53053;DHT22;38934;52.690;6.184;2024-03-23T19:05:39;5.20;99.90
53053;DHT22;38934;52.690;6.184;2024-03-23T19:08:05;5.40;99.90
53053;DHT22;38934;52.690;6.184;2024-03-23T19:10:31;5.10;99.90
53053;DHT22;38934;52.690;6.184;2024-03-23T19:12:56;5.30;99.90
53053;DHT22;38934;52.690;6.184;2024-03-23T19:15:22;5.10;99.90
53053;DHT22;38934;52.690;6.184;2024-03-23T19:17:49;5.00;99.90
53053;DHT22;38934;52.690;6.184;2024-03-23T19:20:15;5.40;99.90
53053;DHT22;38934;52.690;6.184;2024-03-23T19:22:40;5.00;99.90
53053;DHT22;38934;52.690;6.184;2024-03-23T19:25:06;5.20;99.90
53053;DHT22;38934;52.690;6.184;2024-03-23T19:27:38;5.00;99.90